createdAt,value
2023-02-12T00:01:10.166Z,6.60
2023-02-12T00:03:38.359Z,5.20
2023-02-12T00:06:07.105Z,5.20
2023-02-12T00:08:37.514Z,5.60
2023-02-12T00:11:10.078Z,5.13
2023-02-12T00:13:39.007Z,5.10
2023-02-12T00:16:09.185Z,4.50
2023-02-12T00:18:37.949Z,4.77
2023-02-12T00:21:08.737Z,4.60
2023-02-12T00:23:41.088Z,4.83
2023-02-12T00:26:10.349Z,5.20
2023-02-12T00:28:40.104Z,5.23
2023-02-12T00:31:09.730Z,5.40
2023-02-12T00:33:37.952Z,4.90
2023-02-12T00:36:07.896Z,5.17
2023-02-12T00:38:37.561Z,4.27
2023-02-12T00:41:05.850Z,4.30
2023-02-12T00:43:33.872Z,4.03
2023-02-12T00:46:02.235Z,4.10
2023-02-12T00:48:30.240Z,3.60
2023-02-12T00:50:58.360Z,3.63
2023-02-12T00:53:26.420Z,3.63
2023-02-12T00:55:56.343Z,4.00
2023-02-12T00:58:24.973Z,3.47
2023-02-12T01:00:53.072Z,2.80
2023-02-12T01:03:21.416Z,3.43
2023-02-12T01:05:49.447Z,3.07
2023-02-12T01:08:18.312Z,3.30
2023-02-12T01:10:46.350Z,2.90
2023-02-12T01:13:16.601Z,2.80
2023-02-12T01:15:44.631Z,2.73
2023-02-12T01:18:12.692Z,2.77
2023-02-12T01:20:41.285Z,2.50
2023-02-12T01:23:09.544Z,2.90
2023-02-12T01:25:39.331Z,2.67
2023-02-12T01:28:07.398Z,2.47
2023-02-12T01:30:36.791Z,2.70
2023-02-12T01:33:04.882Z,2.70
2023-02-12T01:35:32.875Z,2.67
2023-02-12T01:38:01.151Z,2.13
2023-02-12T01:40:29.324Z,2.60
2023-02-12T01:43:00.980Z,2.53
2023-02-12T01:45:54.789Z,2.77
2023-02-12T01:48:26.652Z,2.80
2023-02-12T01:50:56.927Z,2.77
2023-02-12T01:53:30.402Z,2.97
2023-02-12T01:56:02.229Z,2.90
2023-02-12T01:58:35.111Z,2.43
2023-02-12T02:01:07.236Z,3.00
2023-02-12T02:03:38.117Z,3.47
2023-02-12T02:06:11.321Z,3.23
2023-02-12T02:08:41.645Z,3.03
2023-02-12T02:11:25.634Z,3.70
2023-02-12T02:14:11.473Z,3.50
2023-02-12T02:16:46.677Z,3.00
2023-02-12T02:19:28.342Z,3.20
2023-02-12T02:22:21.869Z,3.63
2023-02-12T02:25:24.932Z,4.07
2023-02-12T02:28:04.955Z,3.50
2023-02-12T02:30:45.078Z,4.00
2023-02-12T02:33:23.684Z,4.17
2023-02-12T02:35:58.878Z,4.27
2023-02-12T02:38:35.568Z,4.03
2023-02-12T02:41:08.463Z,4.37
2023-02-12T02:43:40.610Z,4.07
2023-02-12T02:46:13.204Z,4.27
2023-02-12T02:48:45.357Z,3.93
2023-02-12T02:51:17.431Z,3.47
2023-02-12T02:53:48.327Z,3.80
2023-02-12T02:56:20.093Z,4.40
2023-02-12T02:58:52.341Z,4.17
2023-02-12T03:01:26.769Z,4.00
2023-02-12T03:04:01.288Z,4.40
2023-02-12T03:06:34.159Z,4.07
2023-02-12T03:09:08.337Z,4.63
2023-02-12T03:11:36.519Z,3.93
2023-02-12T03:14:08.943Z,3.87
2023-02-12T03:16:42.825Z,4.00
2023-02-12T03:19:16.498Z,4.77
2023-02-12T03:21:48.413Z,4.53
2023-02-12T03:24:23.000Z,4.37
2023-02-12T03:26:55.542Z,4.00
2023-02-12T03:29:23.669Z,4.30
2023-02-12T03:32:06.639Z,4.27
2023-02-12T03:34:46.881Z,4.70
2023-02-12T03:37:20.710Z,4.73
2023-02-12T03:39:55.473Z,4.83
2023-02-12T03:42:33.715Z,5.27
2023-02-12T03:45:09.811Z,5.03
2023-02-12T03:47:45.249Z,5.63
2023-02-12T03:50:18.666Z,5.77
2023-02-12T03:52:48.206Z,5.47
2023-02-12T03:55:17.427Z,6.37
2023-02-12T03:57:50.356Z,5.90
2023-02-12T04:00:21.715Z,6.33
2023-02-12T04:02:51.534Z,6.33
2023-02-12T04:05:21.337Z,6.60
2023-02-12T04:07:50.433Z,7.00
2023-02-12T04:10:20.578Z,8.33
2023-02-12T04:12:55.623Z,7.57
2023-02-12T04:15:38.584Z,7.43
2023-02-12T04:18:13.876Z,9.70
2023-02-12T04:20:52.337Z,8.97
2023-02-12T04:23:34.593Z,7.87
2023-02-12T04:26:09.681Z,8.77
2023-02-12T04:28:44.908Z,8.03
2023-02-12T04:31:18.862Z,9.20
2023-02-12T04:34:01.897Z,9.37
2023-02-12T04:36:36.091Z,10.47
2023-02-12T04:39:11.063Z,9.40
2023-02-12T04:41:39.834Z,10.43
2023-02-12T04:44:16.200Z,10.03
2023-02-12T04:46:44.325Z,11.87
2023-02-12T04:49:17.194Z,10.93
2023-02-12T04:51:46.377Z,11.13
2023-02-12T04:54:14.882Z,11.53
2023-02-12T04:56:43.447Z,11.40
2023-02-12T04:59:11.823Z,11.70
2023-02-12T05:01:40.965Z,11.67
2023-02-12T05:04:09.932Z,11.20
2023-02-12T05:06:40.443Z,12.47
2023-02-12T05:09:09.193Z,12.87
2023-02-12T05:11:37.212Z,12.90
2023-02-12T05:14:05.803Z,14.80
2023-02-12T05:16:33.798Z,14.87
2023-02-12T05:19:01.859Z,14.63
2023-02-12T05:21:30.027Z,14.50
2023-02-12T05:23:59.396Z,15.67
2023-02-12T05:26:27.390Z,13.83
2023-02-12T05:28:55.392Z,14.73
2023-02-12T05:31:23.538Z,16.03
2023-02-12T05:33:52.093Z,16.83
2023-02-12T05:36:22.800Z,14.83
2023-02-12T05:38:51.847Z,15.10
2023-02-12T05:41:23.400Z,16.13
2023-02-12T05:43:51.691Z,16.83
2023-02-12T05:46:21.215Z,15.97
2023-02-12T05:48:49.562Z,16.60
2023-02-12T05:51:21.701Z,16.90
2023-02-12T05:53:50.811Z,17.23
2023-02-12T05:56:22.572Z,17.23
2023-02-12T05:58:54.119Z,17.03
2023-02-12T06:01:24.986Z,18.50
2023-02-12T06:03:53.259Z,14.50
2023-02-12T06:06:21.361Z,18.63
2023-02-12T06:08:50.289Z,17.80
2023-02-12T06:11:19.374Z,17.50
2023-02-12T06:13:49.682Z,17.40
2023-02-12T06:16:19.904Z,17.03
2023-02-12T06:18:48.127Z,17.00
2023-02-12T06:21:16.757Z,17.80
2023-02-12T06:23:44.847Z,20.27
2023-02-12T06:26:12.874Z,19.77
2023-02-12T06:28:40.928Z,18.37
2023-02-12T06:31:20.145Z,18.83
2023-02-12T06:33:48.309Z,15.30
2023-02-12T06:36:16.656Z,19.50
2023-02-12T06:38:44.688Z,18.20
2023-02-12T06:41:13.459Z,17.37
2023-02-12T06:43:41.645Z,18.30
2023-02-12T06:46:10.522Z,18.27
2023-02-12T06:48:39.922Z,17.93
2023-02-12T06:51:09.616Z,18.57
2023-02-12T06:53:38.034Z,17.27
2023-02-12T06:56:11.170Z,17.40
2023-02-12T06:58:40.091Z,17.10
2023-02-12T07:01:13.779Z,15.33
2023-02-12T07:03:43.898Z,15.63
2023-02-12T07:06:12.316Z,16.53
2023-02-12T07:08:40.361Z,17.60
2023-02-12T07:11:08.608Z,17.90
2023-02-12T07:13:37.262Z,17.50
2023-02-12T07:16:07.042Z,17.60
2023-02-12T07:18:35.527Z,18.43
2023-02-12T07:21:06.521Z,18.90
2023-02-12T07:23:35.506Z,18.43
2023-02-12T07:26:05.387Z,17.80
2023-02-12T07:28:34.432Z,18.27
2023-02-12T07:31:08.459Z,18.30
2023-02-12T07:33:37.340Z,17.93
2023-02-12T07:36:09.085Z,16.27
2023-02-12T07:38:39.617Z,19.37
2023-02-12T07:41:10.720Z,19.00
2023-02-12T07:43:39.423Z,17.50
2023-02-12T07:46:09.567Z,17.50
2023-02-12T07:48:37.668Z,19.27
2023-02-12T07:51:09.423Z,18.67
2023-02-12T07:53:38.288Z,18.27
2023-02-12T07:56:08.091Z,18.03
2023-02-12T07:58:36.345Z,18.60
2023-02-12T08:01:13.882Z,18.13
2023-02-12T08:03:42.199Z,18.43
2023-02-12T08:06:22.234Z,17.33
2023-02-12T08:08:52.922Z,16.97
2023-02-12T08:11:21.104Z,17.33
2023-02-12T08:13:49.140Z,17.43
2023-02-12T08:16:18.941Z,16.77
2023-02-12T08:18:47.096Z,17.30
2023-02-12T08:21:18.895Z,15.50
2023-02-12T08:23:49.842Z,16.70
2023-02-12T08:26:20.570Z,14.53
2023-02-12T08:28:50.864Z,16.13
2023-02-12T08:31:20.521Z,14.47
2023-02-12T08:33:49.813Z,14.20
2023-02-12T08:36:21.571Z,15.03
2023-02-12T08:38:50.409Z,14.37
2023-02-12T08:41:21.770Z,13.80
2023-02-12T08:43:50.815Z,15.33
2023-02-12T08:46:21.691Z,15.00
2023-02-12T08:48:49.827Z,15.10
2023-02-12T08:51:21.095Z,15.40
2023-02-12T08:53:52.545Z,14.97
2023-02-12T08:56:20.793Z,14.80
2023-02-12T08:58:49.069Z,14.97
2023-02-12T09:01:20.199Z,14.97
2023-02-12T09:03:48.992Z,15.37
2023-02-12T09:06:20.053Z,15.03
2023-02-12T09:08:48.632Z,14.97
2023-02-12T09:11:18.614Z,14.87
2023-02-12T09:13:47.970Z,15.20
2023-02-12T09:16:16.211Z,15.20
2023-02-12T09:18:45.168Z,14.73
2023-02-12T09:21:16.589Z,14.97
2023-02-12T09:23:46.123Z,15.57
2023-02-12T09:26:16.179Z,14.77
2023-02-12T09:28:44.735Z,14.60
2023-02-12T09:31:14.498Z,14.50
2023-02-12T09:33:43.293Z,14.87
2023-02-12T09:36:13.380Z,16.00
2023-02-12T09:38:42.053Z,15.47
2023-02-12T09:41:27.161Z,14.47
2023-02-12T09:44:01.690Z,14.70
2023-02-12T09:46:32.575Z,15.60
2023-02-12T09:49:10.141Z,14.97
2023-02-12T09:51:41.019Z,14.60
2023-02-12T09:54:14.372Z,13.77
2023-02-12T09:56:49.050Z,14.30
2023-02-12T09:59:25.466Z,15.47
2023-02-12T10:01:53.702Z,14.70
2023-02-12T10:04:22.594Z,14.33
2023-02-12T10:07:02.932Z,15.03
2023-02-12T10:09:46.831Z,14.60
2023-02-12T10:12:26.760Z,14.43
2023-02-12T10:15:14.400Z,14.43
2023-02-12T10:17:48.594Z,14.57
2023-02-12T10:20:41.523Z,14.90
2023-02-12T10:23:26.196Z,14.47
2023-02-12T10:25:57.204Z,14.33
2023-02-12T10:28:29.333Z,15.13
2023-02-12T10:31:00.802Z,13.83
2023-02-12T10:33:32.886Z,13.60
2023-02-12T10:36:12.943Z,14.97
2023-02-12T10:38:43.972Z,14.87
2023-02-12T10:41:16.059Z,14.27
2023-02-12T10:43:45.504Z,14.30
2023-02-12T10:46:16.133Z,14.33
2023-02-12T10:48:47.314Z,14.47
2023-02-12T10:51:37.661Z,14.40
2023-02-12T10:54:33.272Z,12.67
2023-02-12T10:57:07.105Z,13.50
2023-02-12T10:59:36.563Z,14.63
2023-02-12T11:02:04.678Z,13.77
2023-02-12T11:04:34.515Z,13.93
2023-02-12T11:07:05.191Z,14.17
2023-02-12T11:09:40.620Z,13.47
2023-02-12T11:12:20.333Z,13.97
2023-02-12T11:14:53.154Z,13.50
2023-02-12T11:17:26.849Z,14.07
2023-02-12T11:20:09.723Z,12.93
2023-02-12T11:22:38.288Z,13.10
2023-02-12T11:25:16.913Z,12.13
2023-02-12T11:27:45.532Z,12.73
2023-02-12T11:30:23.392Z,11.27
2023-02-12T11:32:52.251Z,9.50
2023-02-12T11:35:25.763Z,9.67
2023-02-12T11:37:56.840Z,9.20
2023-02-12T11:40:28.057Z,8.53
2023-02-12T11:42:59.038Z,8.77
2023-02-12T11:45:33.482Z,8.27
2023-02-12T11:48:01.908Z,8.17
2023-02-12T11:50:32.047Z,7.73
2023-02-12T11:53:06.956Z,8.03
2023-02-12T11:55:37.495Z,8.43
2023-02-12T11:58:14.887Z,8.13
2023-02-12T12:00:52.061Z,7.87
2023-02-12T12:03:26.102Z,7.50
2023-02-12T12:05:57.514Z,7.57
2023-02-12T12:08:28.777Z,7.33
2023-02-12T12:11:00.098Z,6.90
2023-02-12T12:13:33.141Z,7.40
2023-02-12T12:16:27.823Z,7.40
2023-02-12T12:19:17.648Z,7.30
2023-02-12T12:21:55.427Z,6.77
2023-02-12T12:24:33.457Z,6.87
2023-02-12T12:27:24.549Z,6.50
2023-02-12T12:29:56.832Z,6.83
2023-02-12T12:32:30.573Z,6.07
2023-02-12T12:34:58.605Z,6.07
2023-02-12T12:37:35.936Z,6.17
2023-02-12T12:40:18.499Z,6.03
2023-02-12T12:43:11.572Z,5.60
2023-02-12T12:46:06.762Z,5.60
2023-02-12T12:49:13.227Z,5.63
2023-02-12T12:52:01.691Z,5.80
2023-02-12T12:54:41.069Z,6.57
2023-02-12T12:57:21.496Z,6.13
2023-02-12T13:00:15.875Z,6.13
2023-02-12T13:03:20.439Z,5.73
2023-02-12T13:06:17.365Z,6.33
2023-02-12T13:09:06.069Z,6.10
2023-02-12T13:11:41.669Z,5.53
2023-02-12T13:14:25.791Z,5.17
2023-02-12T13:16:59.367Z,5.77
2023-02-12T13:19:41.017Z,4.90
2023-02-12T13:22:16.622Z,4.80
2023-02-12T13:24:49.054Z,4.60
2023-02-12T13:27:22.246Z,4.53
2023-02-12T13:29:55.284Z,4.50
2023-02-12T13:32:27.989Z,5.00
2023-02-12T13:34:58.556Z,5.27
2023-02-12T13:37:36.495Z,5.00
2023-02-12T13:40:06.927Z,5.23
2023-02-12T13:42:46.915Z,5.00
2023-02-12T13:45:24.400Z,5.10
2023-02-12T13:48:06.084Z,5.73
2023-02-12T13:50:42.284Z,5.63
2023-02-12T13:53:23.730Z,5.30
2023-02-12T13:56:04.579Z,4.90
2023-02-12T13:58:52.662Z,5.30
2023-02-12T14:01:45.814Z,4.67
2023-02-12T14:04:29.374Z,5.57
2023-02-12T14:07:01.438Z,5.20
2023-02-12T14:09:38.721Z,4.50
2023-02-12T14:12:09.508Z,5.30
2023-02-12T14:14:40.523Z,5.40
2023-02-12T14:17:42.657Z,5.30
2023-02-12T14:20:23.738Z,4.47
2023-02-12T14:23:22.259Z,5.50
2023-02-12T14:25:59.384Z,4.50
2023-02-12T14:28:48.576Z,5.10
2023-02-12T14:31:35.581Z,4.53
2023-02-12T14:34:51.936Z,5.10
2023-02-12T14:37:37.764Z,5.03
2023-02-12T14:40:32.511Z,4.90
2023-02-12T14:43:03.499Z,4.90
2023-02-12T14:45:34.724Z,4.87
2023-02-12T14:48:04.048Z,5.27
2023-02-12T14:50:50.437Z,5.40
2023-02-12T14:53:28.900Z,5.50
2023-02-12T14:55:58.514Z,5.57
2023-02-12T14:58:30.752Z,5.70
2023-02-12T15:01:02.457Z,6.13
2023-02-12T15:03:39.653Z,6.37
2023-02-12T15:06:14.969Z,6.10
2023-02-12T15:08:48.091Z,5.80
2023-02-12T15:11:23.744Z,6.53
2023-02-12T15:13:58.184Z,6.70
2023-02-12T15:16:38.766Z,6.27
2023-02-12T15:19:19.514Z,6.23
2023-02-12T15:21:48.381Z,5.70
2023-02-12T15:24:23.917Z,6.10
2023-02-12T15:26:53.486Z,6.13
2023-02-12T15:29:27.336Z,5.70
2023-02-12T15:31:58.051Z,6.00
2023-02-12T15:34:29.779Z,6.27
2023-02-12T15:36:59.979Z,6.10
2023-02-12T15:39:29.522Z,6.50
2023-02-12T15:41:57.535Z,6.20
2023-02-12T15:44:29.098Z,5.83
2023-02-12T15:47:02.649Z,6.80
2023-02-12T15:49:34.888Z,6.93
2023-02-12T15:52:06.914Z,6.37
2023-02-12T15:54:35.543Z,7.00
2023-02-12T15:57:10.295Z,7.20
2023-02-12T15:59:41.103Z,6.90
2023-02-12T16:02:19.897Z,7.20
2023-02-12T16:04:48.443Z,7.30
2023-02-12T16:07:17.764Z,6.93
2023-02-12T16:09:46.826Z,7.20
2023-02-12T16:12:19.092Z,6.97
2023-02-12T16:14:51.116Z,6.53
2023-02-12T16:17:22.877Z,7.40
2023-02-12T16:19:58.870Z,6.83
2023-02-12T16:22:31.285Z,7.27
2023-02-12T16:24:59.836Z,6.57
2023-02-12T16:27:31.353Z,7.87
2023-02-12T16:30:02.916Z,8.03
2023-02-12T16:32:36.507Z,7.40
2023-02-12T16:35:24.267Z,8.77
2023-02-12T16:37:56.316Z,8.53
2023-02-12T16:40:28.200Z,8.40
2023-02-12T16:43:01.891Z,9.57
2023-02-12T16:45:42.667Z,8.97
2023-02-12T16:48:23.236Z,9.13
2023-02-12T16:50:53.837Z,9.73
2023-02-12T16:53:28.545Z,10.10
2023-02-12T16:55:56.972Z,10.40
2023-02-12T16:58:26.281Z,10.10
2023-02-12T17:00:57.742Z,10.90
2023-02-12T17:03:26.461Z,10.53
2023-02-12T17:05:55.063Z,11.73
2023-02-12T17:08:24.929Z,13.03
2023-02-12T17:10:53.628Z,12.03
2023-02-12T17:13:21.896Z,13.03
2023-02-12T17:15:53.992Z,13.07
2023-02-12T17:18:23.641Z,13.37
2023-02-12T17:20:56.847Z,13.60
2023-02-12T17:23:25.636Z,14.17
2023-02-12T17:25:54.558Z,15.07
2023-02-12T17:28:25.157Z,14.83
2023-02-12T17:30:53.518Z,15.67
2023-02-12T17:33:23.821Z,17.10
2023-02-12T17:35:51.999Z,16.40
2023-02-12T17:38:20.385Z,15.70
2023-02-12T17:40:48.383Z,16.57
2023-02-12T17:43:16.385Z,17.73
2023-02-12T17:45:44.836Z,16.37
2023-02-12T17:48:13.375Z,17.90
2023-02-12T17:50:43.644Z,17.10
2023-02-12T17:53:13.005Z,17.47
2023-02-12T17:55:42.073Z,17.47
2023-02-12T17:58:10.232Z,18.03
2023-02-12T18:00:38.251Z,15.93
2023-02-12T18:03:06.230Z,16.23
2023-02-12T18:05:34.264Z,18.03
2023-02-12T18:08:03.662Z,17.87
2023-02-12T18:10:31.720Z,18.07
2023-02-12T18:12:59.730Z,17.37
2023-02-12T18:15:27.738Z,17.20
2023-02-12T18:17:55.765Z,16.40
2023-02-12T18:20:23.772Z,15.93
2023-02-12T18:22:51.849Z,15.87
2023-02-12T18:25:21.264Z,16.47
2023-02-12T18:27:49.523Z,15.57
2023-02-12T18:30:17.811Z,16.03
2023-02-12T18:32:45.829Z,15.83
2023-02-12T18:35:14.634Z,15.43
2023-02-12T18:37:43.442Z,14.73
2023-02-12T18:40:12.734Z,14.47
2023-02-12T18:42:42.244Z,13.53
2023-02-12T18:45:10.676Z,14.03
2023-02-12T18:47:38.844Z,14.57
2023-02-12T18:50:08.227Z,13.73
2023-02-12T18:52:37.374Z,14.77
2023-02-12T18:55:06.100Z,13.57
2023-02-12T18:57:34.164Z,14.30
2023-02-12T19:00:04.596Z,13.77
2023-02-12T19:02:32.782Z,13.33
2023-02-12T19:05:00.912Z,14.03
2023-02-12T19:07:29.452Z,14.70
2023-02-12T19:09:57.475Z,13.97
2023-02-12T19:12:26.235Z,14.33
2023-02-12T19:14:54.344Z,14.20
2023-02-12T19:17:23.756Z,13.80
2023-02-12T19:19:52.427Z,13.70
2023-02-12T19:22:20.762Z,14.07
2023-02-12T19:24:51.472Z,14.30
2023-02-12T19:27:19.497Z,14.47
2023-02-12T19:29:47.482Z,14.67
2023-02-12T19:32:15.540Z,13.13
2023-02-12T19:34:45.942Z,14.17
2023-02-12T19:37:14.439Z,20.17
2023-02-12T19:39:42.531Z,14.97
2023-02-12T19:42:12.622Z,14.63
2023-02-12T19:44:40.985Z,14.80
2023-02-12T19:47:09.501Z,13.57
2023-02-12T19:49:37.953Z,14.77
2023-02-12T19:52:07.467Z,13.87
2023-02-12T19:54:36.011Z,13.00
2023-02-12T19:57:08.952Z,13.67
2023-02-12T19:59:37.374Z,13.47
2023-02-12T20:02:05.464Z,14.07
2023-02-12T20:04:33.831Z,13.97
2023-02-12T20:07:01.906Z,12.87
2023-02-12T20:09:31.551Z,13.33
2023-02-12T20:11:59.669Z,14.00
2023-02-12T20:14:28.687Z,12.63
2023-02-12T20:16:58.494Z,12.43
2023-02-12T20:19:28.060Z,13.17
2023-02-12T20:21:57.456Z,12.87
2023-02-12T20:24:27.775Z,12.53
2023-02-12T20:26:59.073Z,12.83
2023-02-12T20:29:27.726Z,12.03
2023-02-12T20:31:55.842Z,13.30
2023-02-12T20:34:23.987Z,14.23
2023-02-12T20:36:52.040Z,13.60
2023-02-12T20:39:21.666Z,13.10
2023-02-12T20:41:50.449Z,14.10
2023-02-12T20:44:21.187Z,13.50
2023-02-12T20:46:54.396Z,13.03
2023-02-12T20:49:25.189Z,12.90
2023-02-12T20:51:53.305Z,12.67
2023-02-12T20:54:21.399Z,12.33
2023-02-12T20:56:50.209Z,12.30
2023-02-12T20:59:20.235Z,12.83
2023-02-12T21:01:48.389Z,13.40
2023-02-12T21:04:18.779Z,14.03
2023-02-12T21:06:48.260Z,13.57
2023-02-12T21:09:16.805Z,13.67
2023-02-12T21:11:45.966Z,13.50
2023-02-12T21:14:23.957Z,13.70
2023-02-12T21:16:55.136Z,13.23
2023-02-12T21:19:23.387Z,13.73
2023-02-12T21:21:51.502Z,13.80
2023-02-12T21:24:21.886Z,12.03
2023-02-12T21:26:50.358Z,13.73
2023-02-12T21:29:18.452Z,13.90
2023-02-12T21:31:48.593Z,14.13
2023-02-12T21:34:20.856Z,12.93
2023-02-12T21:36:49.851Z,14.53
2023-02-12T21:39:24.309Z,13.40
2023-02-12T21:41:53.702Z,14.60
2023-02-12T21:44:23.114Z,13.50
2023-02-12T21:46:51.298Z,14.73
2023-02-12T21:49:25.031Z,15.10
2023-02-12T21:51:54.875Z,14.53
2023-02-12T21:54:23.639Z,14.40
2023-02-12T21:56:51.969Z,13.83
2023-02-12T21:59:20.325Z,13.87
2023-02-12T22:01:49.838Z,14.10
2023-02-12T22:04:20.540Z,14.80
2023-02-12T22:06:50.513Z,14.43
2023-02-12T22:09:20.473Z,13.73
2023-02-12T22:11:48.499Z,14.33
2023-02-12T22:14:18.541Z,14.77
2023-02-12T22:16:47.666Z,14.03
2023-02-12T22:19:16.010Z,14.50
2023-02-12T22:21:45.608Z,13.83
2023-02-12T22:24:15.702Z,13.97
2023-02-12T22:26:44.575Z,14.90
2023-02-12T22:29:14.362Z,14.33
2023-02-12T22:31:44.817Z,13.80
2023-02-12T22:34:14.462Z,14.27
2023-02-12T22:36:43.354Z,13.87
2023-02-12T22:39:13.976Z,12.83
2023-02-12T22:41:43.072Z,12.93
2023-02-12T22:44:12.647Z,13.53
2023-02-12T22:46:40.789Z,15.37
2023-02-12T22:49:08.837Z,13.97
2023-02-12T22:51:38.969Z,13.10
2023-02-12T22:54:07.504Z,13.37
2023-02-12T22:56:36.893Z,14.80
2023-02-12T22:59:05.060Z,14.03
2023-02-12T23:01:33.248Z,13.30
2023-02-12T23:04:03.004Z,11.37
2023-02-12T23:06:32.397Z,12.10
2023-02-12T23:09:03.374Z,13.70
2023-02-12T23:11:33.782Z,12.40
2023-02-12T23:14:03.147Z,14.00
2023-02-12T23:16:31.219Z,13.20
2023-02-12T23:19:00.741Z,12.43
2023-02-12T23:21:30.506Z,12.57
2023-02-12T23:23:59.983Z,11.03
2023-02-12T23:26:28.618Z,12.60
2023-02-12T23:28:57.194Z,12.60
2023-02-12T23:31:27.044Z,11.77
2023-02-12T23:33:55.241Z,11.73
2023-02-12T23:36:23.260Z,11.53
2023-02-12T23:38:51.264Z,10.70
2023-02-12T23:41:19.332Z,11.30
2023-02-12T23:43:47.334Z,11.60
2023-02-12T23:46:15.388Z,10.87
2023-02-12T23:48:45.473Z,11.90
2023-02-12T23:51:13.555Z,12.00
2023-02-12T23:53:42.679Z,10.50
2023-02-12T23:56:10.668Z,12.30
2023-02-12T23:58:38.691Z,12.30
